createdAt,value
2023-06-23T00:01:21.484Z,23.90
2023-06-23T00:03:49.276Z,23.90
2023-06-23T00:06:16.815Z,23.90
2023-06-23T00:08:43.746Z,23.90
2023-06-23T00:11:11.575Z,23.90
2023-06-23T00:13:38.794Z,23.90
2023-06-23T00:16:07.283Z,23.80
2023-06-23T00:18:38.370Z,23.80
2023-06-23T00:21:06.658Z,23.80
2023-06-23T00:23:34.314Z,23.80
2023-06-23T00:26:04.771Z,23.80
2023-06-23T00:28:32.120Z,23.80
2023-06-23T00:30:59.134Z,23.70
2023-06-23T00:33:25.971Z,23.70
2023-06-23T00:35:52.778Z,23.70
2023-06-23T00:38:21.141Z,23.70
2023-06-23T00:40:48.135Z,23.70
2023-06-23T00:43:17.606Z,23.70
2023-06-23T00:45:45.041Z,23.70
2023-06-23T00:48:15.568Z,23.60
2023-06-23T00:50:43.727Z,23.60
2023-06-23T00:53:11.070Z,23.50
2023-06-23T00:55:38.785Z,23.50
2023-06-23T00:58:07.880Z,23.50
2023-06-23T01:00:34.735Z,23.50
2023-06-23T01:03:02.835Z,23.50
2023-06-23T01:05:33.349Z,23.40
2023-06-23T01:08:15.233Z,23.40
2023-06-23T01:10:53.894Z,23.40
2023-06-23T01:13:41.619Z,23.30
2023-06-23T01:16:32.912Z,23.30
2023-06-23T01:19:20.934Z,23.20
2023-06-23T01:22:20.035Z,23.10
2023-06-23T01:25:15.400Z,23.10
2023-06-23T01:28:08.285Z,23.10
2023-06-23T01:30:38.133Z,23.00
2023-06-23T01:33:14.482Z,22.90
2023-06-23T01:35:46.186Z,22.90
2023-06-23T01:38:24.124Z,22.90
2023-06-23T01:40:55.385Z,22.90
2023-06-23T01:43:30.617Z,22.90
2023-06-23T01:46:05.959Z,22.90
2023-06-23T01:48:35.829Z,22.90
2023-06-23T01:51:06.400Z,22.90
2023-06-23T01:53:33.347Z,22.90
2023-06-23T01:56:04.077Z,22.80
2023-06-23T01:58:33.660Z,22.80
2023-06-23T02:01:01.749Z,22.70
2023-06-23T02:03:30.025Z,22.80
2023-06-23T02:05:59.101Z,22.70
2023-06-23T02:08:28.247Z,22.70
2023-06-23T02:10:56.635Z,22.70
2023-06-23T02:13:26.081Z,22.80
2023-06-23T02:15:54.894Z,22.80
2023-06-23T02:18:22.381Z,22.70
2023-06-23T02:20:51.537Z,22.70
2023-06-23T02:23:19.183Z,22.70
2023-06-23T02:25:46.908Z,22.70
2023-06-23T02:28:14.397Z,22.70
2023-06-23T02:30:42.458Z,22.70
2023-06-23T02:33:09.440Z,22.70
2023-06-23T02:35:36.464Z,22.70
2023-06-23T02:38:09.015Z,22.70
2023-06-23T02:40:40.213Z,22.70
2023-06-23T02:43:16.802Z,22.70
2023-06-23T02:45:51.810Z,22.70
2023-06-23T02:48:22.660Z,22.70
2023-06-23T02:50:51.563Z,22.70
2023-06-23T02:53:23.688Z,22.60
2023-06-23T02:55:57.414Z,22.60
2023-06-23T02:58:27.685Z,22.70
2023-06-23T03:00:55.568Z,22.60
2023-06-23T03:03:22.864Z,22.70
2023-06-23T03:05:50.922Z,22.70
2023-06-23T03:08:17.767Z,22.70
2023-06-23T03:10:44.621Z,22.70
2023-06-23T03:13:11.443Z,22.70
2023-06-23T03:15:38.252Z,22.70
2023-06-23T03:18:16.433Z,22.70
2023-06-23T03:20:49.714Z,22.70
2023-06-23T03:23:18.616Z,22.70
2023-06-23T03:25:49.249Z,22.70
2023-06-23T03:28:26.413Z,22.70
2023-06-23T03:31:08.130Z,22.70
2023-06-23T03:33:37.532Z,22.70
2023-06-23T03:36:21.190Z,22.70
2023-06-23T03:39:09.691Z,22.80
2023-06-23T03:41:39.751Z,22.80
2023-06-23T03:44:23.775Z,22.80
2023-06-23T03:47:01.613Z,22.90
2023-06-23T03:49:41.378Z,22.90
2023-06-23T03:52:10.781Z,22.90
2023-06-23T03:54:40.230Z,22.90
2023-06-23T03:57:12.272Z,22.90
2023-06-23T03:59:40.782Z,23.00
2023-06-23T04:02:09.791Z,23.00
2023-06-23T04:04:42.714Z,23.10
2023-06-23T04:07:11.734Z,23.10
2023-06-23T04:09:42.036Z,23.20
2023-06-23T04:12:14.037Z,23.20
2023-06-23T04:14:42.637Z,23.30
2023-06-23T04:17:12.621Z,23.30
2023-06-23T04:19:42.683Z,23.30
2023-06-23T04:22:10.679Z,23.20
2023-06-23T04:24:39.585Z,23.30
2023-06-23T04:27:07.977Z,23.30
2023-06-23T04:29:38.034Z,23.30
2023-06-23T04:32:05.253Z,23.30
2023-06-23T04:34:32.821Z,23.30
2023-06-23T04:37:10.102Z,23.30
2023-06-23T04:39:50.348Z,23.30
2023-06-23T04:42:22.750Z,23.30
2023-06-23T04:44:54.876Z,23.30
2023-06-23T04:47:24.247Z,23.40
2023-06-23T04:49:55.863Z,23.50
2023-06-23T04:52:24.080Z,23.60
2023-06-23T04:54:55.234Z,23.70
2023-06-23T04:57:26.283Z,23.80
2023-06-23T04:59:56.674Z,23.90
2023-06-23T05:02:26.548Z,24.00
2023-06-23T05:04:56.812Z,24.10
2023-06-23T05:07:25.284Z,24.10
2023-06-23T05:09:53.866Z,24.10
2023-06-23T05:12:23.196Z,24.20
2023-06-23T05:14:51.602Z,24.30
2023-06-23T05:17:21.684Z,24.30
2023-06-23T05:19:49.211Z,24.40
2023-06-23T05:22:18.687Z,24.40
2023-06-23T05:24:55.256Z,24.40
2023-06-23T05:27:25.165Z,24.40
2023-06-23T05:29:54.373Z,24.40
2023-06-23T05:32:23.894Z,24.40
2023-06-23T05:34:52.910Z,24.50
2023-06-23T05:37:21.623Z,24.60
2023-06-23T05:39:50.627Z,24.60
2023-06-23T05:42:17.701Z,24.60
2023-06-23T05:44:44.568Z,24.60
2023-06-23T05:47:16.576Z,24.70
2023-06-23T05:49:48.113Z,24.70
2023-06-23T05:52:20.084Z,24.80
2023-06-23T05:54:49.284Z,24.90
2023-06-23T05:57:29.674Z,25.00
2023-06-23T06:00:07.226Z,25.10
2023-06-23T06:02:37.570Z,25.10
2023-06-23T06:05:08.585Z,25.20
2023-06-23T06:07:36.563Z,25.30
2023-06-23T06:10:06.022Z,25.30
2023-06-23T06:12:35.644Z,25.30
2023-06-23T06:15:04.176Z,25.40
2023-06-23T06:17:33.300Z,25.40
2023-06-23T06:20:03.856Z,25.40
2023-06-23T06:22:33.681Z,25.40
2023-06-23T06:25:03.498Z,25.50
2023-06-23T06:27:34.128Z,25.50
2023-06-23T06:30:04.239Z,25.50
2023-06-23T06:32:35.268Z,25.50
2023-06-23T06:35:06.578Z,25.50
2023-06-23T06:37:42.121Z,25.50
2023-06-23T06:40:12.847Z,25.50
2023-06-23T06:42:42.236Z,25.50
2023-06-23T06:45:10.056Z,25.50
2023-06-23T06:47:44.815Z,25.50
2023-06-23T06:50:16.964Z,25.50
2023-06-23T06:52:46.228Z,25.50
2023-06-23T06:55:19.514Z,25.40
2023-06-23T06:57:50.782Z,25.40
2023-06-23T07:00:22.633Z,25.30
2023-06-23T07:02:49.943Z,25.40
2023-06-23T07:05:18.269Z,25.40
2023-06-23T07:07:46.066Z,25.50
2023-06-23T07:10:14.501Z,25.50
2023-06-23T07:12:41.409Z,25.50
2023-06-23T07:15:11.188Z,25.50
2023-06-23T07:17:40.361Z,25.50
2023-06-23T07:20:08.485Z,25.60
2023-06-23T07:22:35.487Z,25.60
2023-06-23T07:25:02.593Z,25.60
2023-06-23T07:27:29.698Z,25.60
2023-06-23T07:29:56.610Z,25.60
2023-06-23T07:32:24.266Z,25.60
2023-06-23T07:34:51.463Z,25.60
2023-06-23T07:37:18.390Z,25.60
2023-06-23T07:39:45.314Z,25.60
2023-06-23T07:42:12.142Z,25.60
2023-06-23T07:44:39.106Z,25.70
2023-06-23T07:47:06.558Z,25.70
2023-06-23T07:49:33.522Z,25.70
2023-06-23T07:52:05.809Z,25.80
2023-06-23T07:54:33.112Z,25.70
2023-06-23T07:57:01.477Z,25.70
2023-06-23T07:59:28.534Z,25.70
2023-06-23T08:01:55.602Z,25.70
2023-06-23T08:04:24.144Z,25.70
2023-06-23T08:06:51.753Z,25.70
2023-06-23T08:09:19.004Z,25.70
2023-06-23T08:11:46.190Z,25.70
2023-06-23T08:14:13.495Z,25.70
2023-06-23T08:16:40.785Z,25.70
2023-06-23T08:19:07.943Z,25.70
2023-06-23T08:21:37.717Z,25.70
2023-06-23T08:24:05.024Z,25.70
2023-06-23T08:26:32.015Z,25.70
2023-06-23T08:28:58.848Z,25.70
2023-06-23T08:31:25.718Z,25.60
2023-06-23T08:33:52.589Z,25.60
2023-06-23T08:36:19.538Z,25.60
2023-06-23T08:38:46.367Z,25.50
2023-06-23T08:41:13.391Z,25.50
2023-06-23T08:43:46.095Z,25.50
2023-06-23T08:46:16.073Z,25.50
2023-06-23T08:48:52.349Z,25.50
2023-06-23T08:51:19.447Z,25.40
2023-06-23T08:53:47.456Z,25.40
2023-06-23T08:56:15.333Z,25.30
2023-06-23T08:58:42.648Z,25.30
2023-06-23T09:01:09.601Z,25.20
2023-06-23T09:03:36.643Z,25.20
2023-06-23T09:06:04.472Z,25.10
2023-06-23T09:08:31.913Z,25.10
2023-06-23T09:10:58.807Z,25.00
2023-06-23T09:13:34.586Z,24.90
2023-06-23T09:16:03.969Z,24.80
2023-06-23T09:18:37.169Z,24.80
2023-06-23T09:21:04.710Z,24.80
2023-06-23T09:23:34.916Z,24.70
2023-06-23T09:26:04.932Z,24.70
2023-06-23T09:28:36.938Z,24.70
2023-06-23T09:31:22.976Z,24.60
2023-06-23T09:33:54.829Z,24.60
2023-06-23T09:36:21.757Z,24.60
2023-06-23T09:38:50.664Z,24.60
2023-06-23T09:41:18.993Z,24.60
2023-06-23T09:43:47.083Z,24.60
2023-06-23T09:46:18.830Z,24.60
2023-06-23T09:48:47.751Z,24.60
2023-06-23T09:51:14.784Z,24.60
2023-06-23T09:53:43.160Z,24.60
2023-06-23T09:56:16.767Z,24.60
2023-06-23T09:58:45.203Z,24.60
2023-06-23T10:01:14.504Z,24.60
2023-06-23T10:03:52.676Z,24.70
2023-06-23T10:06:35.834Z,24.70
2023-06-23T10:09:06.550Z,24.60
2023-06-23T10:11:35.700Z,24.60
2023-06-23T10:14:08.560Z,24.60
2023-06-23T10:16:36.937Z,24.60
2023-06-23T10:19:05.527Z,24.60
2023-06-23T10:21:32.922Z,24.50
2023-06-23T10:24:08.894Z,24.50
2023-06-23T10:26:37.745Z,24.40
2023-06-23T10:29:08.069Z,24.50
2023-06-23T10:31:37.004Z,24.50
2023-06-23T10:34:06.515Z,24.50
2023-06-23T10:36:37.257Z,24.40
2023-06-23T10:39:05.801Z,24.50
2023-06-23T10:41:35.499Z,24.50
2023-06-23T10:44:05.390Z,24.60
2023-06-23T10:46:34.533Z,24.60
2023-06-23T10:49:04.799Z,24.70
2023-06-23T10:51:32.601Z,24.80
2023-06-23T10:54:01.904Z,24.80
2023-06-23T10:56:35.504Z,24.80
2023-06-23T10:59:18.205Z,24.90
2023-06-23T11:02:14.595Z,24.90
2023-06-23T11:04:56.628Z,25.00
2023-06-23T11:07:24.635Z,25.00
2023-06-23T11:10:04.423Z,25.00
2023-06-23T11:12:39.976Z,25.10
2023-06-23T11:15:10.048Z,25.10
2023-06-23T11:17:44.846Z,25.10
2023-06-23T11:20:32.275Z,25.20
2023-06-23T11:23:06.118Z,25.20
2023-06-23T11:25:48.177Z,25.30
2023-06-23T11:28:38.651Z,25.40
2023-06-23T11:31:09.337Z,25.50
2023-06-23T11:33:40.328Z,25.60
2023-06-23T11:36:10.001Z,25.60
2023-06-23T11:38:38.949Z,25.70
2023-06-23T11:41:05.985Z,25.80
2023-06-23T11:43:39.486Z,25.90
2023-06-23T11:46:16.543Z,25.90
2023-06-23T11:48:44.072Z,25.80
2023-06-23T11:51:14.416Z,25.80
2023-06-23T11:53:41.842Z,25.90
2023-06-23T11:56:09.869Z,26.00
2023-06-23T11:58:37.153Z,25.90
2023-06-23T12:01:05.689Z,25.80
2023-06-23T12:03:37.453Z,25.80
2023-06-23T12:06:04.370Z,25.90
2023-06-23T12:08:31.325Z,25.90
2023-06-23T12:10:58.173Z,25.90
2023-06-23T12:13:25.002Z,26.00
2023-06-23T12:15:56.269Z,26.10
2023-06-23T12:18:25.277Z,26.20
2023-06-23T12:20:52.187Z,26.30
2023-06-23T12:23:19.003Z,26.30
2023-06-23T12:25:48.964Z,26.40
2023-06-23T12:28:17.375Z,26.60
2023-06-23T12:30:45.997Z,26.70
2023-06-23T12:33:23.693Z,26.80
2023-06-23T12:36:04.289Z,26.90
2023-06-23T12:38:34.100Z,26.80
2023-06-23T12:41:16.739Z,26.80
2023-06-23T12:43:43.800Z,26.90
2023-06-23T12:46:15.135Z,26.90
2023-06-23T12:48:42.940Z,27.00
2023-06-23T12:51:10.182Z,27.00
2023-06-23T12:53:37.387Z,27.00
2023-06-23T12:56:04.741Z,27.10
2023-06-23T12:58:31.554Z,27.20
2023-06-23T13:00:58.413Z,27.30
2023-06-23T13:03:25.345Z,27.40
2023-06-23T13:05:52.427Z,27.30
2023-06-23T13:08:19.298Z,27.40
2023-06-23T13:10:46.482Z,27.40
2023-06-23T13:13:13.423Z,27.40
2023-06-23T13:15:40.432Z,27.40
2023-06-23T13:18:07.518Z,27.40
2023-06-23T13:20:34.817Z,27.40
2023-06-23T13:23:02.603Z,27.50
2023-06-23T13:25:29.403Z,27.50
2023-06-23T13:27:56.703Z,27.50
2023-06-23T13:30:23.637Z,27.60
2023-06-23T13:32:50.545Z,27.60
2023-06-23T13:35:17.641Z,27.70
2023-06-23T13:37:44.508Z,27.70
2023-06-23T13:40:13.652Z,27.70
2023-06-23T13:42:41.066Z,27.60
2023-06-23T13:45:09.512Z,27.50
2023-06-23T13:47:38.497Z,27.50
2023-06-23T13:50:13.901Z,27.50
2023-06-23T13:52:41.180Z,27.60
2023-06-23T13:55:10.361Z,27.70
2023-06-23T13:57:42.941Z,27.80
2023-06-23T14:00:11.410Z,27.90
2023-06-23T14:02:38.870Z,28.00
2023-06-23T14:05:06.556Z,28.00
2023-06-23T14:07:33.670Z,28.00
2023-06-23T14:10:03.230Z,28.00
2023-06-23T14:12:31.865Z,28.10
2023-06-23T14:14:58.733Z,28.10
2023-06-23T14:17:27.331Z,28.00
2023-06-23T14:19:54.535Z,28.00
2023-06-23T14:22:21.580Z,28.10
2023-06-23T14:24:48.410Z,28.10
2023-06-23T14:27:15.354Z,28.10
2023-06-23T14:29:42.138Z,28.10
2023-06-23T14:32:09.027Z,28.10
2023-06-23T14:34:35.892Z,28.10
2023-06-23T14:37:04.817Z,28.20
2023-06-23T14:39:32.336Z,28.20
2023-06-23T14:41:59.285Z,28.20
2023-06-23T14:44:27.641Z,28.20
2023-06-23T14:46:57.605Z,28.10
2023-06-23T14:49:24.883Z,28.10
2023-06-23T14:51:52.195Z,28.10
2023-06-23T14:54:19.178Z,28.10
2023-06-23T14:56:47.065Z,28.10
2023-06-23T14:59:14.299Z,28.00
2023-06-23T15:01:41.332Z,28.10
2023-06-23T15:04:08.270Z,28.00
2023-06-23T15:06:35.214Z,28.00
2023-06-23T15:09:02.162Z,28.00
2023-06-23T15:11:29.166Z,27.90
2023-06-23T15:13:56.026Z,27.90
2023-06-23T15:16:23.178Z,27.90
2023-06-23T15:18:50.035Z,27.90
2023-06-23T15:21:18.295Z,27.90
2023-06-23T15:23:45.467Z,27.90
2023-06-23T15:26:12.268Z,27.80
2023-06-23T15:28:39.058Z,27.80
2023-06-23T15:31:05.843Z,27.80
2023-06-23T15:33:32.632Z,27.80
2023-06-23T15:35:59.768Z,27.80
2023-06-23T15:38:29.293Z,27.80
2023-06-23T15:40:56.409Z,27.80
2023-06-23T15:43:23.484Z,27.70
2023-06-23T15:45:50.571Z,27.70
2023-06-23T15:48:17.717Z,27.70
2023-06-23T15:50:44.585Z,27.70
2023-06-23T15:53:11.548Z,27.80
2023-06-23T15:55:38.912Z,27.80
2023-06-23T15:58:06.107Z,27.70
2023-06-23T16:00:33.052Z,27.70
2023-06-23T16:03:00.042Z,27.70
2023-06-23T16:05:27.045Z,27.70
2023-06-23T16:07:53.989Z,27.70
2023-06-23T16:10:20.992Z,27.70
2023-06-23T16:12:48.399Z,27.70
2023-06-23T16:15:15.292Z,27.70
2023-06-23T16:17:43.086Z,27.70
2023-06-23T16:20:10.501Z,27.80
2023-06-23T16:22:37.376Z,27.80
2023-06-23T16:25:05.080Z,27.80
2023-06-23T16:27:32.281Z,27.80
2023-06-23T16:29:59.294Z,27.80
2023-06-23T16:32:27.049Z,27.80
2023-06-23T16:34:56.166Z,27.80
2023-06-23T16:37:23.093Z,27.80
2023-06-23T16:39:49.821Z,27.80
2023-06-23T16:42:16.630Z,27.80
2023-06-23T16:44:44.294Z,27.90
2023-06-23T16:47:11.976Z,27.90
2023-06-23T16:49:38.971Z,27.90
2023-06-23T16:52:06.726Z,27.90
2023-06-23T16:54:35.942Z,27.90
2023-06-23T16:57:03.141Z,27.90
2023-06-23T16:59:30.138Z,27.90
2023-06-23T17:01:59.876Z,27.80
2023-06-23T17:04:26.684Z,27.80
2023-06-23T17:06:53.518Z,27.80
2023-06-23T17:09:20.352Z,27.70
2023-06-23T17:11:47.746Z,27.70
2023-06-23T17:14:16.188Z,27.70
2023-06-23T17:16:43.008Z,27.70
2023-06-23T17:19:09.790Z,27.70
2023-06-23T17:21:38.426Z,27.70
2023-06-23T17:24:05.466Z,27.70
2023-06-23T17:26:33.724Z,27.60
2023-06-23T17:29:00.527Z,27.60
2023-06-23T17:31:27.491Z,27.60
2023-06-23T17:33:54.420Z,27.50
2023-06-23T17:36:21.343Z,27.60
2023-06-23T17:38:48.176Z,27.50
2023-06-23T17:41:15.018Z,27.50
2023-06-23T17:43:41.799Z,27.50
2023-06-23T17:46:09.257Z,27.40
2023-06-23T17:48:36.275Z,27.40
2023-06-23T17:51:03.727Z,27.30
2023-06-23T17:53:30.965Z,27.30
2023-06-23T17:55:58.384Z,27.20
2023-06-23T17:58:26.397Z,27.20
2023-06-23T18:00:53.158Z,27.20
2023-06-23T18:03:20.200Z,27.20
2023-06-23T18:05:47.051Z,27.20
2023-06-23T18:08:13.837Z,27.10
2023-06-23T18:10:40.663Z,26.90
2023-06-23T18:13:07.596Z,26.90
2023-06-23T18:15:34.719Z,26.90
2023-06-23T18:18:01.831Z,26.90
2023-06-23T18:20:28.816Z,26.90
2023-06-23T18:22:55.740Z,26.90
2023-06-23T18:25:22.616Z,26.90
2023-06-23T18:27:49.576Z,26.80
2023-06-23T18:30:17.221Z,26.80
2023-06-23T18:32:44.952Z,26.80
2023-06-23T18:35:13.677Z,26.80
2023-06-23T18:37:41.913Z,26.80
2023-06-23T18:40:09.436Z,26.80
2023-06-23T18:42:36.314Z,26.80
2023-06-23T18:45:03.391Z,26.80
2023-06-23T18:47:33.176Z,26.70
2023-06-23T18:49:59.979Z,26.70
2023-06-23T18:52:27.000Z,26.60
2023-06-23T18:54:54.813Z,26.60
2023-06-23T18:57:23.334Z,26.50
2023-06-23T18:59:50.740Z,26.50
2023-06-23T19:02:17.558Z,26.50
2023-06-23T19:04:44.413Z,26.50
2023-06-23T19:07:11.640Z,26.50
2023-06-23T19:09:38.656Z,26.50
2023-06-23T19:12:09.818Z,26.40
2023-06-23T19:14:38.491Z,26.40
2023-06-23T19:17:07.674Z,26.40
2023-06-23T19:19:37.235Z,26.30
2023-06-23T19:22:04.674Z,26.30
2023-06-23T19:24:31.852Z,26.20
2023-06-23T19:26:59.113Z,26.20
2023-06-23T19:29:25.938Z,26.20
2023-06-23T19:31:52.702Z,26.20
2023-06-23T19:34:19.520Z,26.10
2023-06-23T19:36:46.522Z,26.10
2023-06-23T19:39:13.398Z,26.10
2023-06-23T19:41:42.621Z,26.00
2023-06-23T19:44:09.781Z,26.00
2023-06-23T19:46:36.676Z,25.90
2023-06-23T19:49:03.804Z,25.90
2023-06-23T19:51:30.638Z,25.80
2023-06-23T19:53:58.996Z,25.70
2023-06-23T19:56:25.906Z,25.70
2023-06-23T19:58:52.838Z,25.70
2023-06-23T20:01:19.639Z,25.60
2023-06-23T20:03:47.171Z,25.60
2023-06-23T20:06:14.120Z,25.50
2023-06-23T20:08:40.978Z,25.50
2023-06-23T20:11:07.749Z,25.40
2023-06-23T20:13:34.660Z,25.40
2023-06-23T20:16:01.625Z,25.30
2023-06-23T20:18:28.755Z,25.30
2023-06-23T20:20:55.578Z,25.20
2023-06-23T20:23:23.195Z,25.20
2023-06-23T20:25:50.019Z,25.20
2023-06-23T20:28:17.920Z,25.10
2023-06-23T20:30:44.851Z,25.10
2023-06-23T20:33:11.708Z,25.00
2023-06-23T20:35:38.497Z,25.00
2023-06-23T20:38:05.369Z,24.90
2023-06-23T20:40:32.344Z,24.90
2023-06-23T20:43:00.604Z,24.90
2023-06-23T20:45:27.508Z,24.80
2023-06-23T20:47:54.646Z,24.80
2023-06-23T20:50:21.571Z,24.80
2023-06-23T20:52:48.336Z,24.80
2023-06-23T20:55:15.403Z,24.80
2023-06-23T20:57:42.256Z,24.80
2023-06-23T21:00:09.587Z,24.80
2023-06-23T21:02:36.541Z,24.80
2023-06-23T21:05:03.550Z,24.70
2023-06-23T21:07:30.441Z,24.80
2023-06-23T21:09:57.262Z,24.70
2023-06-23T21:12:24.095Z,24.70
2023-06-23T21:15:04.001Z,24.70
2023-06-23T21:17:33.370Z,24.70
2023-06-23T21:20:00.359Z,24.70
2023-06-23T21:22:27.120Z,24.70
2023-06-23T21:24:53.955Z,24.60
2023-06-23T21:27:20.770Z,24.70
2023-06-23T21:29:47.556Z,24.60
2023-06-23T21:32:14.543Z,24.60
2023-06-23T21:34:41.350Z,24.60
2023-06-23T21:37:08.208Z,24.60
2023-06-23T21:39:35.045Z,24.60
2023-06-23T21:42:01.835Z,24.60
2023-06-23T21:44:28.688Z,24.50
2023-06-23T21:46:55.864Z,24.50
2023-06-23T21:49:22.708Z,24.50
2023-06-23T21:51:51.628Z,24.50
2023-06-23T21:54:18.508Z,24.50
2023-06-23T21:56:46.617Z,24.50
2023-06-23T21:59:13.366Z,24.50
2023-06-23T22:01:40.279Z,24.40
2023-06-23T22:04:07.212Z,24.40
2023-06-23T22:06:34.027Z,24.40
2023-06-23T22:09:00.859Z,24.40
2023-06-23T22:11:27.680Z,24.40
2023-06-23T22:13:54.450Z,24.30
2023-06-23T22:16:21.248Z,24.30
2023-06-23T22:18:50.129Z,24.30
2023-06-23T22:21:21.240Z,24.30
2023-06-23T22:23:48.119Z,24.20
2023-06-23T22:26:15.403Z,24.20
2023-06-23T22:28:42.660Z,24.10
2023-06-23T22:31:09.671Z,24.10
2023-06-23T22:33:36.683Z,24.10
2023-06-23T22:36:03.686Z,24.10
2023-06-23T22:38:30.433Z,24.10
2023-06-23T22:40:57.355Z,24.00
2023-06-23T22:43:24.124Z,24.00
2023-06-23T22:45:51.078Z,24.00
2023-06-23T22:48:18.053Z,24.00
2023-06-23T22:50:44.831Z,24.00
2023-06-23T22:53:11.822Z,24.00
2023-06-23T22:55:38.626Z,23.90
2023-06-23T22:58:05.519Z,23.90
2023-06-23T23:00:33.184Z,23.90
2023-06-23T23:03:01.402Z,23.80
2023-06-23T23:05:28.352Z,23.80
2023-06-23T23:07:55.129Z,23.80
2023-06-23T23:10:21.990Z,23.80
2023-06-23T23:12:48.805Z,23.80
2023-06-23T23:15:17.140Z,23.80
2023-06-23T23:17:44.296Z,23.70
2023-06-23T23:20:11.641Z,23.70
2023-06-23T23:22:38.627Z,23.70
2023-06-23T23:25:06.171Z,23.70
2023-06-23T23:27:39.579Z,23.70
2023-06-23T23:30:08.380Z,23.70
2023-06-23T23:32:39.107Z,23.70
2023-06-23T23:35:07.319Z,23.70
2023-06-23T23:37:34.840Z,23.70
2023-06-23T23:40:01.650Z,23.70
2023-06-23T23:42:29.091Z,23.70
2023-06-23T23:44:55.909Z,23.70
2023-06-23T23:47:22.725Z,23.60
2023-06-23T23:49:49.580Z,23.60
2023-06-23T23:52:16.418Z,23.60
2023-06-23T23:54:43.221Z,23.60
2023-06-23T23:57:10.215Z,23.70
2023-06-23T23:59:37.616Z,23.70
